Tuesday, July 29, 2014
12:50 UTC
  |  Log In   |  Register Free
Airport Search:

Live Oak County Airport
(8T6)

Live Oak County Airport Diagram
No Airport Diagram Available

FAA data valid effective July 24, 2014 until September 18, 2014 (unless otherwise noted).

 
 
 
 
 
 
 
 
 
 
 
 
 
 

Current Aviation Weather for Live Oak County Airport (8T6)

The most recent METAR observation for KBEA was updated at: 1835 UTC
METAR Summary (Translated METAR)
KBEA
281835Z AUTO 13008KT 10SM SCT050 37/19 A3007 RMK AO2 T03680193
KRBO
(35.4 nm SE from KBEA)
252035Z AUTO 23/21 A3002 RMK AO2 T02340208 PWINO
TAF Summary (Translated TAF)
KCRP
(38.7 nm SE from KBEA)
291130Z 2912/3012 VRB03KT 5SM BR BCFG FEW012 SCT250 TEMPO 2912/2913 3SM BR BCFG FM291300 VRB06KT P6SM SCT025 SCT250 FM291800 14015G22KT P6SM FEW045 FM300200 VRB06KT P6SM SKC
  Airport Weather Conditions for 8T6

Current weather conditions are
not available for 8T6


The nearest NOAA weather station
is at BEA, (17.2 nm SE from 8T6)
  
 Current Weather at BEA
72° F
Fog
South winds at 3.5 mph
BEA NOAA Radar

Pressure: 30.06 in
Humidity: 100%
Wind: South at 3.5 MPH (3 KT)
Dew Point: 71.8°F
Visibility: 0.15 mi


Airport Weather Forecast for 8T6

Translated METAR and TAF for KBEA
Translated METAR for KBEA (1243 UTC 29 July 2014)
found at http://aviationweather.gov/adds/metars/
 
METAR text: KBEA 291235Z AUTO 00000KT 1SM BR VV007 22/22 A3007 RMK AO2 T02230223
Conditions at: KBEA (BEEVILLE MUNI , TX, US) observed 1235 UTC 29 July 2014
Temperature: 22.3°C (72°F)
Dewpoint: 22.3°C (72°F) [RH = 100%]
Pressure (altimeter): 30.07 inches Hg (1018.4 mb)
Winds: calm
Visibility: 1.00 miles (1.61 km)
Ceiling: indefinite ceiling with vertical visibility of 700 feet AGL
Clouds: obscured sky
Weather: BR  (mist)
Translated TAF for KBEA

There is no translated TAF available for this airport

Find All Airport Services Find A Hotel Find A Rental Car Find A Golf Course Find A Restaurant $100 Hamburger



FBO's on the Field
FBO Company Facility Photos Services Transportation Aviation Fuel Prices: Prices include tax
Catering Weather Repair Courtesy Rental Type 100LL JetA JetA+ MOGAS 8087
 
Live Oak Co. Airport

This FBO has not yet been rated
FS:Avfuel
Last Updated: Jul-18
Login to update fuel prices
SS:
Contact Live Oak Co. AirportMore FBO Information
 
Add another FBO Facility Photos Catering Weather Repair Courtesy Rental Type 100LL JetA JetA+ MOGAS 8087
Services Transportation Aviation Fuel Prices: Prices include tax


GlobalAir.com Airport Resource Center model-print
model-print
model-print
model-print